Terminal Aerodrome Forecast
Issued by NWS Sterling, VA

Current Version | Previous Version | Text Only | Print | Product List | Glossary Off
Versions: 1 2 3 4 5 6 7 8 9 10 11 12 13 14 15 16 17 18 19 20 21 22 23 24 25

000
FTUS41 KLWX 242206 AAB
TAFDCA
TAF AMD
KDCA 242206Z 2422/2518 17009KT P6SM BKN060
     FM250500 24005KT P6SM SCT040
     FM251300 27008KT P6SM SCT035=

USA.gov is the U.S. government's official web portal to all federal, state and local government web resources and services.